Time;durP1;ratioP1;P1;durP2;ratioP2;P2;SDS_P1;SDS_P2;PMS_P1;PMS_P2;Temp;Humidity;BMP_temperature;BMP_pressure;BME280_temperature;BME280_humidity;BME280_pressure;Samples;Min_cycle;Max_cycle;Signal;HPM_P1;HPM_P2
2021/12/31 00:00:10;;;;;;;0.80;0.60;;;9.90;99.90;;;;;;4947715;28;20951;-84
2021/12/31 00:02:36;;;;;;;0.80;0.60;;;9.90;99.90;;;;;;4948284;28;20453;-84
2021/12/31 00:05:02;;;;;;;0.80;0.60;;;10.00;99.90;;;;;;4945397;28;20490;-85
2021/12/31 00:07:27;;;;;;;0.80;0.60;;;9.90;99.90;;;;;;4936467;29;20182;-84
2021/12/31 00:09:59;;;;;;;1.30;0.80;;;9.90;99.90;;;;;;4934444;28;20449;-85
2021/12/31 00:12:24;;;;;;;0.80;0.50;;;10.00;99.90;;;;;;4939264;28;20660;-85
2021/12/31 00:14:50;;;;;;;0.80;0.60;;;9.90;99.90;;;;;;4950808;28;20478;-85
2021/12/31 00:17:15;;;;;;;0.80;0.60;;;9.90;99.90;;;;;;4945335;28;20570;-84
2021/12/31 00:19:44;;;;;;;0.80;0.60;;;9.90;99.90;;;;;;4946348;28;20225;-84
2021/12/31 00:22:57;;;;;;;1.10;0.67;;;9.90;99.90;;;;;;4951873;28;20191;-85
2021/12/31 00:25:03;;;;;;;0.80;0.60;;;9.90;99.90;;;;;;4939027;28;20494;-85
2021/12/31 00:27:28;;;;;;;0.80;0.60;;;10.00;99.90;;;;;;4930563;29;20454;-84
2021/12/31 00:29:54;;;;;;;0.80;0.53;;;10.00;99.90;;;;;;4926658;29;20458;-85
2021/12/31 00:32:19;;;;;;;1.63;0.70;;;10.00;99.90;;;;;;4939860;28;20191;-85
2021/12/31 00:34:46;;;;;;;0.80;0.60;;;10.00;99.90;;;;;;4930847;29;20220;-84
2021/12/31 00:37:12;;;;;;;0.80;0.50;;;9.90;99.90;;;;;;4933547;29;20238;-84
2021/12/31 00:39:37;;;;;;;0.80;0.50;;;10.00;99.90;;;;;;4931172;28;20470;-85
2021/12/31 00:42:03;;;;;;;0.80;0.60;;;10.00;99.90;;;;;;4958058;28;20422;-85
2021/12/31 00:44:29;;;;;;;0.80;0.60;;;10.00;99.90;;;;;;4939670;28;20221;-85
2021/12/31 00:46:54;;;;;;;0.80;0.60;;;10.00;99.90;;;;;;4951456;28;20813;-85
2021/12/31 00:49:20;;;;;;;0.80;0.60;;;10.00;99.90;;;;;;4934160;29;20193;-84
2021/12/31 00:51:45;;;;;;;0.80;0.60;;;10.00;99.90;;;;;;4926332;29;20190;-85
2021/12/31 00:54:11;;;;;;;0.80;0.60;;;10.00;99.90;;;;;;4948443;28;20206;-85
2021/12/31 00:56:37;;;;;;;0.80;0.60;;;10.00;99.90;;;;;;4951323;28;20202;-84
2021/12/31 00:59:02;;;;;;;0.80;0.70;;;10.00;99.90;;;;;;4944262;28;20205;-84
2021/12/31 01:01:30;;;;;;;0.80;0.60;;;10.00;99.90;;;;;;4951270;28;20187;-85
2021/12/31 01:03:56;;;;;;;0.80;0.60;;;10.00;99.90;;;;;;4950354;28;20186;-84
2021/12/31 01:06:22;;;;;;;0.80;0.50;;;10.00;99.90;;;;;;4954512;28;20453;-84
2021/12/31 01:08:48;;;;;;;0.80;0.60;;;10.10;99.90;;;;;;4953590;28;20186;-83
2021/12/31 01:11:14;;;;;;;0.80;0.60;;;10.10;99.90;;;;;;4955339;28;20521;-84
2021/12/31 01:16:19;;;;;;;0.80;0.60;;;10.10;99.90;;;;;;4954715;28;20453;-85
2021/12/31 01:21:20;;;;;;;0.80;0.60;;;10.20;99.90;;;;;;4955289;28;20546;-84
2021/12/31 01:23:47;;;;;;;0.80;0.60;;;10.20;99.90;;;;;;4929866;28;20446;-84
2021/12/31 01:26:13;;;;;;;0.80;0.70;;;10.20;99.90;;;;;;4953195;28;20489;-84
2021/12/31 01:28:38;;;;;;;0.80;0.60;;;10.20;99.90;;;;;;4951554;28;20485;-85
2021/12/31 01:31:04;;;;;;;0.80;0.60;;;10.20;99.90;;;;;;4936718;28;20191;-84
2021/12/31 01:33:30;;;;;;;0.80;0.60;;;10.20;99.90;;;;;;4954780;28;20183;-84
2021/12/31 01:35:56;;;;;;;0.80;0.60;;;10.20;99.90;;;;;;4943072;28;20195;-83
2021/12/31 01:38:21;;;;;;;1.20;1.10;;;10.30;99.90;;;;;;4951537;28;20200;-84
2021/12/31 01:40:48;;;;;;;0.80;0.60;;;10.30;99.90;;;;;;4957078;28;20454;-84
2021/12/31 01:43:15;;;;;;;0.80;0.50;;;10.30;99.90;;;;;;4955190;28;20183;-84
2021/12/31 01:45:47;;;;;;;1.10;0.97;;;10.40;99.90;;;;;;4951426;28;20978;-84
2021/12/31 01:48:35;;;;;;;2.10;0.70;;;10.40;99.90;;;;;;4954661;28;20466;-84
2021/12/31 01:51:01;;;;;;;0.80;0.50;;;10.50;99.90;;;;;;4942205;28;20445;-84
2021/12/31 01:53:27;;;;;;;0.80;0.50;;;10.50;99.90;;;;;;4951943;28;20449;-84
2021/12/31 01:55:56;;;;;;;0.80;0.60;;;10.40;99.90;;;;;;4954274;28;20658;-84
2021/12/31 01:58:24;;;;;;;0.80;0.70;;;10.50;99.90;;;;;;4931353;29;20442;-84
2021/12/31 02:00:50;;;;;;;0.80;0.60;;;10.50;99.90;;;;;;4943066;28;20439;-83
2021/12/31 02:03:18;;;;;;;0.80;0.60;;;10.50;99.90;;;;;;4951538;28;20438;-83
2021/12/31 02:05:44;;;;;;;0.80;0.70;;;10.50;99.90;;;;;;4949723;28;20489;-83
2021/12/31 02:08:09;;;;;;;0.80;0.50;;;10.60;99.90;;;;;;4953308;28;21040;-83
2021/12/31 02:10:35;;;;;;;0.80;0.50;;;10.50;99.90;;;;;;4936930;29;20201;-83
2021/12/31 02:13:01;;;;;;;3.83;0.70;;;10.60;99.90;;;;;;4952082;28;20279;-84
2021/12/31 02:15:26;;;;;;;0.80;0.60;;;10.60;99.90;;;;;;4953007;28;20198;-83
2021/12/31 02:17:53;;;;;;;0.80;0.50;;;10.70;99.90;;;;;;4951751;28;20610;-84
2021/12/31 02:20:19;;;;;;;2.20;0.80;;;10.70;99.90;;;;;;4932883;28;20191;-84
2021/12/31 02:22:55;;;;;;;0.80;0.60;;;10.70;99.90;;;;;;4954303;28;20431;-84
2021/12/31 02:25:24;;;;;;;6.73;1.23;;;10.70;99.90;;;;;;4953603;28;20481;-83
2021/12/31 02:27:50;;;;;;;0.80;0.60;;;10.70;99.90;;;;;;4951026;28;20530;-83
2021/12/31 02:30:16;;;;;;;1.17;1.07;;;10.70;99.90;;;;;;4952473;28;20434;-82
2021/12/31 02:32:41;;;;;;;0.80;0.57;;;10.70;99.90;;;;;;4952150;28;20549;-82
2021/12/31 02:35:09;;;;;;;0.90;0.70;;;10.70;99.90;;;;;;4952614;28;20257;-82
2021/12/31 02:37:34;;;;;;;0.90;0.70;;;10.70;99.90;;;;;;4952816;28;20194;-83
2021/12/31 02:40:08;;;;;;;0.80;0.50;;;10.70;99.90;;;;;;4953319;28;20538;-84
2021/12/31 02:42:33;;;;;;;0.80;0.50;;;10.70;99.90;;;;;;4948889;28;20278;-82
2021/12/31 02:44:59;;;;;;;0.83;0.70;;;10.70;99.90;;;;;;4926862;29;20565;-82
2021/12/31 02:47:25;;;;;;;0.80;0.50;;;10.70;99.90;;;;;;4952171;28;20214;-82
2021/12/31 02:49:51;;;;;;;1.27;1.17;;;10.60;99.90;;;;;;4951692;28;20202;-83
2021/12/31 02:52:17;;;;;;;0.80;0.50;;;10.60;99.90;;;;;;4952497;28;20191;-82
2021/12/31 02:54:46;;;;;;;0.80;0.60;;;10.70;99.90;;;;;;4948653;28;20189;-83
2021/12/31 02:57:18;;;;;;;0.80;0.60;;;10.70;99.90;;;;;;4950383;28;20441;-82
2021/12/31 02:59:44;;;;;;;0.80;0.50;;;10.70;99.90;;;;;;4953303;28;20449;-82
2021/12/31 03:02:11;;;;;;;1.10;0.67;;;10.70;99.90;;;;;;4962531;28;21096;-83
2021/12/31 03:04:39;;;;;;;0.80;0.60;;;10.70;99.90;;;;;;4934200;28;20503;-82
2021/12/31 03:07:06;;;;;;;0.80;0.60;;;10.70;99.90;;;;;;4935582;29;20521;-83
2021/12/31 03:09:34;;;;;;;0.80;0.60;;;10.70;99.90;;;;;;4951869;28;20434;-82
2021/12/31 03:12:01;;;;;;;0.80;0.60;;;10.70;99.90;;;;;;4952344;28;20529;-83
2021/12/31 03:14:28;;;;;;;0.80;0.60;;;10.80;99.90;;;;;;4933190;29;20477;-83
2021/12/31 03:16:54;;;;;;;0.80;0.50;;;10.70;99.90;;;;;;4952981;28;20922;-82
2021/12/31 03:19:21;;;;;;;0.80;0.50;;;10.70;99.90;;;;;;4950069;28;20453;-82
2021/12/31 03:21:46;;;;;;;0.80;0.60;;;10.80;99.90;;;;;;4949507;28;20182;-82
2021/12/31 03:24:12;;;;;;;0.80;0.60;;;10.70;99.90;;;;;;4951378;28;20450;-82
2021/12/31 03:26:38;;;;;;;1.87;1.07;;;10.70;99.90;;;;;;4947844;28;20442;-81
2021/12/31 03:29:03;;;;;;;0.90;0.60;;;10.70;99.90;;;;;;4949794;28;20338;-82
2021/12/31 03:31:29;;;;;;;0.80;0.60;;;10.70;99.90;;;;;;4951201;28;20639;-82
2021/12/31 03:33:54;;;;;;;0.80;0.50;;;10.70;99.90;;;;;;4954888;28;20187;-81
2021/12/31 03:36:20;;;;;;;1.73;0.93;;;10.70;99.90;;;;;;4948948;29;20190;-81
2021/12/31 03:38:45;;;;;;;0.90;0.67;;;10.60;99.90;;;;;;4949073;28;20206;-81
2021/12/31 03:41:12;;;;;;;0.80;0.50;;;10.70;99.90;;;;;;4933938;29;20183;-81
2021/12/31 03:43:38;;;;;;;0.80;0.60;;;10.70;99.90;;;;;;4951170;28;20198;-84
2021/12/31 03:46:03;;;;;;;1.13;1.03;;;10.60;99.90;;;;;;4951652;28;20498;-81
2021/12/31 03:48:29;;;;;;;0.80;0.50;;;10.60;99.90;;;;;;4952202;28;20354;-81
2021/12/31 03:50:55;;;;;;;0.80;0.50;;;10.60;99.90;;;;;;4950941;28;20190;-81
2021/12/31 03:53:20;;;;;;;1.10;1.00;;;10.60;99.90;;;;;;4959139;28;20182;-82
2021/12/31 03:55:46;;;;;;;0.90;0.63;;;10.60;99.90;;;;;;4947869;28;20519;-82
2021/12/31 03:58:12;;;;;;;1.00;0.60;;;10.60;99.90;;;;;;4938215;28;20222;-81
2021/12/31 04:00:38;;;;;;;1.10;0.90;;;10.60;99.90;;;;;;4928191;29;20182;-81
2021/12/31 04:03:08;;;;;;;0.80;0.60;;;10.60;99.90;;;;;;4949095;28;20502;-81
2021/12/31 04:05:35;;;;;;;0.80;0.60;;;10.60;99.90;;;;;;4951330;28;20482;-81
2021/12/31 04:08:00;;;;;;;0.80;0.50;;;10.60;99.90;;;;;;4945401;28;20929;-81
2021/12/31 04:10:26;;;;;;;1.17;0.93;;;10.70;99.90;;;;;;4952223;28;20448;-81
2021/12/31 04:12:52;;;;;;;0.80;0.50;;;10.60;99.90;;;;;;4955339;28;20271;-82
2021/12/31 04:15:18;;;;;;;0.80;0.60;;;10.60;99.90;;;;;;4951306;28;20277;-82
2021/12/31 04:17:43;;;;;;;0.80;0.60;;;10.60;99.90;;;;;;4951773;28;21045;-82
2021/12/31 04:20:18;;;;;;;0.80;0.57;;;10.70;99.90;;;;;;4934054;29;20446;-82
2021/12/31 04:22:51;;;;;;;0.80;0.60;;;10.70;99.90;;;;;;4950699;28;20178;-82
2021/12/31 04:25:17;;;;;;;1.03;0.93;;;10.70;99.90;;;;;;4951396;28;20497;-82
2021/12/31 04:27:42;;;;;;;0.90;0.77;;;10.70;99.90;;;;;;4948391;28;20974;-82
2021/12/31 04:30:08;;;;;;;0.80;0.70;;;10.70;99.90;;;;;;4946919;28;20224;-82
2021/12/31 04:32:34;;;;;;;1.00;0.70;;;10.70;99.90;;;;;;4928478;29;20175;-82
2021/12/31 04:35:00;;;;;;;0.90;0.80;;;10.70;99.90;;;;;;4927323;29;20860;-82
2021/12/31 04:37:25;;;;;;;1.10;1.00;;;10.70;99.90;;;;;;4932825;29;20250;-82
2021/12/31 04:39:51;;;;;;;1.63;1.53;;;10.70;99.90;;;;;;4943430;28;20309;-81
2021/12/31 04:42:16;;;;;;;1.10;0.80;;;10.70;99.90;;;;;;4942439;28;20575;-82
2021/12/31 04:44:42;;;;;;;0.80;0.60;;;10.70;99.90;;;;;;4935092;29;20226;-82
2021/12/31 04:47:07;;;;;;;0.80;0.60;;;10.70;99.90;;;;;;4933586;28;20183;-83
2021/12/31 04:49:33;;;;;;;0.80;0.50;;;10.70;99.90;;;;;;4927408;29;20194;-83
2021/12/31 04:51:59;;;;;;;0.80;0.50;;;10.70;99.90;;;;;;4933108;28;20196;-82
2021/12/31 04:54:24;;;;;;;1.00;0.90;;;10.70;99.90;;;;;;4933271;28;20199;-83
2021/12/31 04:56:53;;;;;;;0.90;0.70;;;10.70;99.90;;;;;;4928566;29;20591;-83
2021/12/31 04:59:19;;;;;;;0.97;0.80;;;10.70;99.90;;;;;;4918569;28;20666;-82
2021/12/31 05:01:44;;;;;;;1.17;1.07;;;10.80;99.90;;;;;;4950903;28;20441;-82
2021/12/31 05:04:10;;;;;;;0.80;0.60;;;10.80;99.90;;;;;;4949868;28;20935;-82
2021/12/31 05:06:37;;;;;;;0.80;0.60;;;10.70;99.90;;;;;;4950215;28;20816;-82
2021/12/31 05:09:03;;;;;;;0.80;0.50;;;10.70;99.90;;;;;;4950047;28;20285;-81
2021/12/31 05:11:29;;;;;;;1.03;0.93;;;10.70;99.90;;;;;;4932918;28;20533;-83
2021/12/31 05:13:54;;;;;;;0.80;0.60;;;10.70;99.90;;;;;;4930431;28;20186;-81
2021/12/31 05:16:20;;;;;;;0.80;0.60;;;10.70;99.90;;;;;;4932666;28;20198;-81
2021/12/31 05:18:45;;;;;;;0.80;0.57;;;10.70;99.90;;;;;;4948447;28;20302;-81
2021/12/31 05:21:11;;;;;;;0.80;0.50;;;10.70;99.90;;;;;;4940770;28;20648;-81
2021/12/31 05:23:36;;;;;;;0.80;0.50;;;10.70;99.90;;;;;;4950701;28;20207;-81
2021/12/31 05:26:02;;;;;;;0.80;0.70;;;10.70;99.90;;;;;;4942317;28;20226;-81
2021/12/31 05:28:27;;;;;;;0.80;0.50;;;10.70;99.90;;;;;;4947926;28;20242;-82
2021/12/31 05:30:53;;;;;;;0.80;0.50;;;10.80;99.90;;;;;;4946668;28;20213;-82
2021/12/31 05:33:18;;;;;;;0.80;0.50;;;10.80;99.90;;;;;;4928710;28;20202;-82
2021/12/31 05:35:44;;;;;;;0.80;0.60;;;10.80;99.90;;;;;;4936090;29;20197;-83
2021/12/31 05:38:09;;;;;;;0.80;0.50;;;10.80;99.90;;;;;;4947889;28;20190;-82
2021/12/31 05:40:35;;;;;;;0.80;0.60;;;10.80;99.90;;;;;;4948323;28;20659;-84
2021/12/31 05:43:01;;;;;;;0.80;0.50;;;10.90;99.90;;;;;;4945703;28;20680;-82
2021/12/31 05:45:27;;;;;;;0.80;0.50;;;10.90;99.90;;;;;;4953856;28;20490;-81
2021/12/31 05:47:53;;;;;;;0.80;0.50;;;10.90;99.90;;;;;;4948054;28;20192;-82
2021/12/31 05:50:27;;;;;;;0.80;0.50;;;10.90;99.90;;;;;;4943088;28;20186;-80
2021/12/31 05:52:54;;;;;;;0.80;0.50;;;10.90;99.90;;;;;;4930892;29;20784;-81
2021/12/31 05:55:19;;;;;;;0.80;0.50;;;10.90;99.90;;;;;;4949573;28;20521;-81
2021/12/31 05:57:45;;;;;;;2.60;1.20;;;10.90;99.90;;;;;;4938747;28;20566;-81
2021/12/31 06:00:11;;;;;;;0.80;0.60;;;10.90;99.90;;;;;;4936550;29;20190;-81
2021/12/31 06:02:36;;;;;;;0.90;0.70;;;10.90;99.90;;;;;;4930130;29;20198;-81
2021/12/31 06:05:02;;;;;;;0.80;0.60;;;10.90;99.90;;;;;;4951366;28;20469;-81
2021/12/31 06:07:28;;;;;;;0.80;0.70;;;10.90;99.90;;;;;;4946151;28;20281;-81
2021/12/31 06:09:53;;;;;;;0.80;0.70;;;10.90;99.90;;;;;;4947459;28;20670;-81
2021/12/31 06:12:19;;;;;;;0.80;0.70;;;10.90;99.90;;;;;;4953265;28;20234;-83
2021/12/31 06:14:44;;;;;;;0.80;0.50;;;10.90;99.90;;;;;;4952395;28;20183;-80
2021/12/31 06:17:11;;;;;;;0.80;0.60;;;10.90;99.90;;;;;;4949842;28;20210;-81
2021/12/31 06:19:39;;;;;;;2.30;0.80;;;11.00;99.90;;;;;;4939751;28;20210;-81
2021/12/31 06:22:05;;;;;;;0.80;0.60;;;11.00;99.90;;;;;;4950982;28;20443;-81
2021/12/31 06:24:30;;;;;;;1.10;0.80;;;11.00;99.90;;;;;;4951636;28;20490;-80
2021/12/31 06:26:56;;;;;;;0.80;0.60;;;11.00;99.90;;;;;;4951879;28;20196;-81
2021/12/31 06:29:21;;;;;;;0.80;0.50;;;11.00;99.90;;;;;;4947737;28;20238;-81
2021/12/31 06:31:47;;;;;;;0.80;0.50;;;11.10;99.90;;;;;;4950397;28;20569;-84
2021/12/31 06:34:12;;;;;;;0.83;0.70;;;11.00;99.90;;;;;;4950766;28;20198;-82
2021/12/31 06:36:38;;;;;;;1.10;0.90;;;11.00;99.90;;;;;;4944570;28;20194;-82
2021/12/31 06:39:04;;;;;;;1.43;0.90;;;11.00;99.90;;;;;;4950505;28;20640;-82
2021/12/31 06:41:29;;;;;;;0.80;0.57;;;11.00;99.90;;;;;;4946404;28;20191;-82
2021/12/31 06:43:55;;;;;;;0.80;0.60;;;11.00;99.90;;;;;;4933088;28;20450;-82
2021/12/31 06:46:21;;;;;;;0.80;0.50;;;11.00;99.90;;;;;;4950867;28;20636;-82
2021/12/31 06:48:47;;;;;;;0.80;0.70;;;11.00;99.90;;;;;;4929405;28;20217;-82
2021/12/31 06:51:13;;;;;;;1.00;0.73;;;11.00;99.90;;;;;;4952465;28;20186;-81
2021/12/31 06:53:39;;;;;;;0.80;0.60;;;11.00;99.90;;;;;;4934197;29;20502;-82
2021/12/31 06:56:05;;;;;;;0.80;0.50;;;11.00;99.90;;;;;;4950184;28;20194;-81
2021/12/31 06:58:31;;;;;;;0.80;0.60;;;11.10;99.90;;;;;;4949579;28;20442;-81
2021/12/31 07:00:56;;;;;;;1.00;0.83;;;11.10;99.90;;;;;;4948765;28;20525;-82
2021/12/31 07:03:22;;;;;;;0.80;0.50;;;11.10;99.90;;;;;;4942625;28;20517;-82
2021/12/31 07:05:47;;;;;;;1.00;0.90;;;11.20;99.90;;;;;;4943295;28;20218;-82
2021/12/31 07:08:13;;;;;;;0.80;0.50;;;11.20;99.90;;;;;;4948898;28;20254;-82
2021/12/31 07:10:39;;;;;;;0.80;0.50;;;11.10;99.90;;;;;;4944781;28;20183;-82
2021/12/31 07:13:10;;;;;;;0.80;0.63;;;11.20;99.90;;;;;;4945118;28;20645;-81
2021/12/31 07:15:41;;;;;;;1.20;1.10;;;11.20;99.90;;;;;;4922882;29;20274;-82
2021/12/31 07:18:08;;;;;;;0.80;0.60;;;11.10;99.90;;;;;;4951614;28;20434;-82
2021/12/31 07:20:34;;;;;;;0.80;0.50;;;11.10;99.90;;;;;;4951292;28;20482;-81
2021/12/31 07:23:08;;;;;;;1.57;1.00;;;11.10;99.90;;;;;;4931629;29;20466;-80
2021/12/31 07:25:34;;;;;;;0.90;0.80;;;11.10;99.90;;;;;;4922245;29;20477;-81
2021/12/31 07:28:00;;;;;;;0.80;0.60;;;11.10;99.90;;;;;;4928702;29;20474;-80
2021/12/31 07:30:26;;;;;;;0.80;0.50;;;11.00;99.90;;;;;;4924467;29;20533;-79
2021/12/31 07:32:51;;;;;;;0.90;0.70;;;11.10;99.90;;;;;;4939688;28;20447;-80
2021/12/31 07:35:17;;;;;;;2.80;1.23;;;11.10;99.90;;;;;;4942380;28;20194;-79
2021/12/31 07:37:42;;;;;;;0.80;0.60;;;11.00;99.90;;;;;;4946067;28;20190;-79
2021/12/31 07:40:10;;;;;;;0.90;0.70;;;11.00;99.90;;;;;;4947854;28;20191;-80
2021/12/31 07:42:36;;;;;;;1.10;1.00;;;11.00;99.90;;;;;;4951861;28;20179;-80
2021/12/31 07:45:02;;;;;;;0.80;0.60;;;11.00;99.90;;;;;;4947911;28;20517;-80
2021/12/31 07:47:28;;;;;;;0.80;0.50;;;11.00;99.90;;;;;;4940384;28;20183;-81
2021/12/31 07:49:53;;;;;;;0.80;0.60;;;11.00;99.90;;;;;;4927604;29;20497;-81
2021/12/31 07:52:19;;;;;;;0.93;0.70;;;11.00;99.90;;;;;;4941329;28;20210;-81
2021/12/31 07:54:44;;;;;;;0.80;0.60;;;11.10;99.90;;;;;;4950770;28;20207;-81
2021/12/31 07:57:10;;;;;;;0.80;0.60;;;11.10;99.90;;;;;;4929112;29;20195;-81
2021/12/31 07:59:35;;;;;;;1.00;0.90;;;11.00;99.90;;;;;;4940834;28;20570;-80
2021/12/31 08:02:01;;;;;;;0.80;0.50;;;11.00;99.90;;;;;;4923599;29;20676;-81
2021/12/31 08:04:26;;;;;;;0.90;0.70;;;11.10;99.90;;;;;;4948844;28;20198;-81
2021/12/31 08:06:52;;;;;;;0.80;0.50;;;11.10;99.90;;;;;;4943164;28;20705;-80
2021/12/31 08:09:17;;;;;;;0.90;0.70;;;11.00;99.90;;;;;;4944058;28;20238;-80
2021/12/31 08:11:43;;;;;;;1.03;0.93;;;11.10;99.90;;;;;;4940936;28;20250;-81
2021/12/31 08:14:08;;;;;;;0.80;0.70;;;11.00;99.90;;;;;;4951130;28;20230;-81
2021/12/31 08:16:34;;;;;;;0.80;0.70;;;11.10;99.90;;;;;;4933515;28;20182;-81
2021/12/31 08:18:59;;;;;;;0.80;0.60;;;11.00;99.90;;;;;;4942089;28;20191;-81
2021/12/31 08:21:25;;;;;;;1.77;1.17;;;11.10;99.90;;;;;;4939386;28;20226;-80
2021/12/31 08:23:50;;;;;;;0.80;0.50;;;11.10;99.90;;;;;;4948269;28;20661;-80
2021/12/31 08:26:16;;;;;;;0.80;0.70;;;11.10;99.90;;;;;;4947865;28;20286;-80
2021/12/31 08:28:41;;;;;;;0.80;0.60;;;11.00;99.90;;;;;;4941708;28;20226;-81
2021/12/31 08:31:07;;;;;;;0.80;0.60;;;11.10;99.90;;;;;;4950471;28;20194;-81
2021/12/31 08:33:32;;;;;;;0.80;0.60;;;11.10;99.90;;;;;;4939456;28;20191;-81
2021/12/31 08:35:58;;;;;;;0.80;0.50;;;11.10;99.90;;;;;;4950614;28;20282;-80
2021/12/31 08:38:24;;;;;;;0.80;0.60;;;11.00;99.90;;;;;;4939826;28;20254;-80
2021/12/31 08:40:50;;;;;;;0.80;0.70;;;11.00;99.90;;;;;;4944975;28;20274;-80
2021/12/31 08:43:15;;;;;;;0.80;0.70;;;11.00;99.90;;;;;;4955867;28;20206;-81
2021/12/31 08:45:41;;;;;;;0.80;0.50;;;11.00;99.90;;;;;;4926565;29;20359;-81
2021/12/31 08:48:06;;;;;;;0.80;0.50;;;11.00;99.90;;;;;;4947306;28;20191;-81
2021/12/31 08:50:33;;;;;;;0.80;0.60;;;11.00;99.90;;;;;;4943699;28;20186;-81
2021/12/31 08:52:59;;;;;;;1.00;0.90;;;11.10;99.90;;;;;;4921767;29;20183;-82
2021/12/31 08:55:25;;;;;;;1.83;1.53;;;11.10;99.90;;;;;;4940754;28;20453;-81
2021/12/31 08:57:51;;;;;;;1.77;0.97;;;11.20;99.90;;;;;;4942599;28;20194;-82
2021/12/31 09:00:17;;;;;;;0.80;0.60;;;11.20;99.90;;;;;;4946614;28;20549;-83
2021/12/31 09:02:45;;;;;;;0.80;0.70;;;11.20;99.90;;;;;;4948931;28;20442;-82
2021/12/31 09:05:11;;;;;;;0.90;0.70;;;11.20;99.90;;;;;;4948934;28;20474;-82
2021/12/31 09:07:37;;;;;;;1.90;1.80;;;11.20;99.90;;;;;;4927499;29;20985;-82
2021/12/31 09:10:04;;;;;;;0.90;0.67;;;11.30;99.90;;;;;;4960594;28;20253;-81
2021/12/31 09:12:29;;;;;;;0.80;0.50;;;11.40;99.90;;;;;;4945152;28;20492;-82
2021/12/31 09:14:55;;;;;;;0.90;0.77;;;11.40;99.90;;;;;;4948732;28;20458;-82
2021/12/31 09:17:22;;;;;;;0.80;0.50;;;11.30;99.90;;;;;;4932799;29;20192;-82
2021/12/31 09:19:48;;;;;;;0.80;0.53;;;11.40;99.90;;;;;;4949048;28;20246;-81
2021/12/31 09:22:14;;;;;;;0.80;0.60;;;11.30;99.90;;;;;;4945847;28;20646;-82
2021/12/31 09:24:39;;;;;;;0.80;0.53;;;11.30;99.90;;;;;;4949322;28;20482;-82
2021/12/31 09:27:05;;;;;;;0.80;0.50;;;11.40;99.90;;;;;;4948170;28;20245;-82
2021/12/31 09:29:31;;;;;;;1.00;0.90;;;11.40;99.90;;;;;;4928308;29;20773;-82
2021/12/31 09:31:56;;;;;;;0.80;0.60;;;11.50;99.90;;;;;;4954337;28;20443;-84
2021/12/31 09:34:22;;;;;;;0.80;0.50;;;11.50;99.90;;;;;;4936889;28;20544;-84
2021/12/31 09:36:47;;;;;;;0.80;0.50;;;11.40;99.90;;;;;;4953439;28;20734;-82
2021/12/31 09:39:13;;;;;;;0.80;0.60;;;11.40;99.90;;;;;;4945513;28;20266;-82
2021/12/31 09:41:38;;;;;;;0.80;0.50;;;11.50;99.90;;;;;;4950646;28;20179;-82
2021/12/31 09:44:04;;;;;;;0.80;0.60;;;11.50;99.90;;;;;;4946944;28;20202;-82
2021/12/31 09:46:30;;;;;;;2.00;1.90;;;11.50;99.90;;;;;;4946143;28;20329;-82
2021/12/31 09:48:55;;;;;;;0.80;0.60;;;11.50;99.90;;;;;;4931716;28;20710;-83
2021/12/31 09:51:23;;;;;;;0.80;0.53;;;11.50;99.90;;;;;;4951616;28;20641;-82
2021/12/31 09:53:50;;;;;;;0.80;0.50;;;11.50;99.90;;;;;;4936659;28;20277;-82
2021/12/31 09:56:15;;;;;;;0.80;0.60;;;11.40;99.90;;;;;;4948876;28;20497;-82
2021/12/31 09:58:41;;;;;;;0.80;0.60;;;11.30;99.90;;;;;;4955474;28;20461;-82
2021/12/31 10:01:08;;;;;;;1.67;0.87;;;11.30;99.90;;;;;;4929069;28;20678;-84
2021/12/31 10:03:35;;;;;;;0.90;0.70;;;11.30;99.90;;;;;;4941212;28;20239;-81
2021/12/31 10:06:11;;;;;;;0.83;0.67;;;11.20;99.90;;;;;;4944338;28;20482;-82
2021/12/31 10:08:44;;;;;;;0.80;0.60;;;11.20;99.90;;;;;;4948497;28;20521;-81
2021/12/31 10:11:25;;;;;;;0.80;0.50;;;11.20;99.90;;;;;;4925961;29;20868;-83
2021/12/31 10:14:03;;;;;;;1.30;1.07;;;11.20;99.90;;;;;;4949246;28;20938;-83
2021/12/31 10:16:37;;;;;;;0.80;0.60;;;11.20;99.90;;;;;;4946827;28;20456;-82
2021/12/31 10:19:16;;;;;;;0.80;0.60;;;11.20;99.90;;;;;;4947145;28;20454;-82
2021/12/31 10:21:46;;;;;;;0.80;0.70;;;11.10;99.90;;;;;;4947384;28;20558;-81
2021/12/31 10:24:22;;;;;;;0.80;0.50;;;11.20;99.90;;;;;;4947525;28;20461;-82
2021/12/31 10:26:56;;;;;;;0.80;0.53;;;11.20;99.90;;;;;;4945559;28;22155;-81
2021/12/31 10:29:22;;;;;;;0.80;0.60;;;11.10;99.90;;;;;;4940414;28;20496;-81
2021/12/31 10:31:52;;;;;;;0.80;0.60;;;11.10;99.90;;;;;;4926102;28;20450;-80
2021/12/31 10:34:44;;;;;;;0.80;0.60;;;11.10;99.90;;;;;;4927736;29;20217;-81
2021/12/31 10:37:15;;;;;;;0.80;0.60;;;11.10;99.90;;;;;;4937854;28;20448;-80
2021/12/31 10:39:43;;;;;;;0.80;0.70;;;11.00;99.90;;;;;;4946640;28;20446;-80
2021/12/31 10:42:14;;;;;;;0.80;0.53;;;11.00;99.90;;;;;;4922416;28;20445;-82
2021/12/31 10:44:51;;;;;;;1.03;0.87;;;11.00;99.90;;;;;;4937549;28;20534;-81
2021/12/31 10:47:32;;;;;;;1.10;1.00;;;11.00;99.90;;;;;;4927651;28;20810;-82
2021/12/31 10:50:03;;;;;;;0.90;0.70;;;11.00;99.90;;;;;;4921410;29;20443;-81
2021/12/31 10:52:56;;;;;;;0.80;0.63;;;11.00;99.90;;;;;;4947031;28;20566;-81
2021/12/31 10:55:30;;;;;;;0.80;0.60;;;11.00;99.90;;;;;;4952773;28;20430;-81
2021/12/31 10:58:01;;;;;;;0.80;0.60;;;11.00;99.90;;;;;;4945385;28;20560;-81
2021/12/31 11:00:31;;;;;;;0.83;0.67;;;11.00;99.90;;;;;;4947079;28;20438;-82
2021/12/31 11:02:57;;;;;;;0.80;0.50;;;11.00;99.90;;;;;;4946466;28;20535;-81
2021/12/31 11:05:23;;;;;;;0.80;0.53;;;11.00;99.90;;;;;;4945955;28;20533;-81
2021/12/31 11:07:50;;;;;;;1.37;0.93;;;11.00;99.90;;;;;;4931934;28;20461;-81
2021/12/31 11:10:18;;;;;;;1.40;1.07;;;11.00;99.90;;;;;;4946681;28;20525;-82
2021/12/31 11:12:47;;;;;;;0.80;0.60;;;11.00;99.90;;;;;;4943213;28;21033;-81
2021/12/31 11:15:15;;;;;;;0.80;0.50;;;11.00;99.90;;;;;;4945225;28;20878;-81
2021/12/31 11:17:41;;;;;;;0.80;0.60;;;11.00;99.90;;;;;;4945090;28;20454;-81
2021/12/31 11:20:08;;;;;;;0.80;0.60;;;10.90;99.90;;;;;;4951572;28;20502;-81
2021/12/31 11:22:34;;;;;;;0.80;0.50;;;10.90;99.90;;;;;;4947750;28;20455;-80
2021/12/31 11:25:18;;;;;;;0.80;0.53;;;10.90;99.90;;;;;;4927111;28;20549;-80
2021/12/31 11:27:47;;;;;;;1.07;0.97;;;10.90;99.90;;;;;;4947031;28;20221;-80
2021/12/31 11:30:40;;;;;;;0.80;0.60;;;10.90;99.90;;;;;;4951189;28;20458;-80
2021/12/31 11:33:09;;;;;;;0.80;0.60;;;10.90;99.90;;;;;;4945454;28;20447;-80
2021/12/31 11:35:46;;;;;;;1.30;1.17;;;10.90;99.90;;;;;;4927897;29;20966;-80
2021/12/31 11:38:21;;;;;;;0.80;0.60;;;10.90;99.90;;;;;;4925786;29;20547;-80
2021/12/31 11:40:51;;;;;;;0.80;0.50;;;10.80;99.90;;;;;;4947321;28;20599;-80
2021/12/31 11:43:27;;;;;;;0.80;0.60;;;10.80;99.90;;;;;;4942284;28;20442;-79
2021/12/31 11:46:12;;;;;;;0.80;0.60;;;10.80;99.90;;;;;;4949495;28;20856;-80
2021/12/31 11:48:47;;;;;;;0.80;0.50;;;10.80;99.90;;;;;;4947916;28;20509;-80
2021/12/31 11:51:17;;;;;;;0.80;0.60;;;10.80;99.90;;;;;;4940294;28;20551;-80
2021/12/31 11:56:33;;;;;;;0.80;0.60;;;10.70;99.90;;;;;;4946805;28;20434;-80
2021/12/31 11:59:20;;;;;;;0.80;0.60;;;10.70;99.90;;;;;;4927932;29;20533;-79
2021/12/31 12:01:47;;;;;;;0.80;0.50;;;10.80;99.90;;;;;;4940209;28;20606;-80
2021/12/31 12:04:33;;;;;;;0.80;0.50;;;10.70;99.90;;;;;;4945219;28;20534;-80
2021/12/31 12:07:02;;;;;;;0.80;0.50;;;10.70;99.90;;;;;;4943915;28;20453;-80
2021/12/31 12:09:37;;;;;;;0.80;0.50;;;10.70;99.90;;;;;;4920626;29;20833;-81
2021/12/31 12:12:04;;;;;;;0.80;0.50;;;10.70;99.90;;;;;;4925431;28;20554;-80
2021/12/31 12:14:36;;;;;;;0.80;0.60;;;10.70;99.90;;;;;;4943587;28;20928;-81
2021/12/31 12:17:03;;;;;;;0.80;0.60;;;10.70;99.90;;;;;;4941771;28;20478;-80
2021/12/31 12:19:52;;;;;;;0.90;0.60;;;10.70;99.90;;;;;;4949766;28;20462;-80
2021/12/31 12:22:33;;;;;;;0.80;0.60;;;10.60;99.90;;;;;;4934519;28;20454;-81
2021/12/31 12:25:06;;;;;;;1.67;0.97;;;10.70;99.90;;;;;;4945002;28;20466;-81
2021/12/31 12:27:33;;;;;;;0.87;0.77;;;10.60;99.90;;;;;;4948170;28;20466;-80
2021/12/31 12:30:03;;;;;;;0.80;0.60;;;10.60;99.90;;;;;;4946795;28;20474;-81
2021/12/31 12:32:34;;;;;;;0.80;0.50;;;10.60;99.90;;;;;;4949788;28;20450;-80
2021/12/31 12:35:31;;;;;;;0.80;0.60;;;10.60;99.90;;;;;;4947593;28;20811;-81
2021/12/31 12:38:02;;;;;;;0.90;0.70;;;10.60;99.90;;;;;;4941927;28;20834;-80
2021/12/31 12:40:51;;;;;;;0.80;0.60;;;10.60;99.90;;;;;;4939556;28;20525;-80
2021/12/31 12:43:23;;;;;;;0.80;0.60;;;10.50;99.90;;;;;;4947404;28;20589;-80
2021/12/31 12:45:57;;;;;;;0.80;0.60;;;10.50;99.90;;;;;;4945856;28;20627;-80
2021/12/31 12:48:36;;;;;;;0.90;0.80;;;10.50;99.90;;;;;;4940676;28;20450;-79
2021/12/31 12:51:07;;;;;;;0.93;0.80;;;10.50;99.90;;;;;;4944046;28;20593;-80
2021/12/31 12:53:35;;;;;;;0.80;0.60;;;10.50;99.90;;;;;;4941340;28;20438;-79
2021/12/31 12:56:05;;;;;;;2.50;0.97;;;10.50;99.90;;;;;;4946751;28;20801;-80
2021/12/31 12:58:32;;;;;;;0.80;0.60;;;10.50;99.90;;;;;;4944268;28;20533;-79